Time,TemperatureF,DewpointF,PressureIn,WindDirection,WindDirectionDegrees,WindSpeedMPH,WindSpeedGustMPH,Humidity,HourlyPrecipIn,Conditions,Clouds,dailyrainin,SoftwareType,DateUTC
2013-04-24 00:01:00,41.0,41.0,30.09,NNE,30,12.0,31.0,99,0.00,,,0.00,,2013-04-24 04:01:00,
2013-04-24 00:03:00,41.0,41.0,30.09,NNE,30,12.0,31.0,99,0.00,,,0.00,,2013-04-24 04:03:00,
2013-04-24 00:12:00,41.0,41.0,30.09,NNE,30,12.0,31.0,99,0.00,,,0.00,,2013-04-24 04:12:00,
2013-04-24 00:23:00,41.0,41.0,30.06,NNE,18,10.0,12.0,99,0.00,,,0.00,,2013-04-24 04:23:00,
2013-04-24 00:33:00,41.0,41.0,30.06,NNE,18,10.0,12.0,99,0.00,,,0.00,,2013-04-24 04:33:00,
2013-04-24 00:43:00,41.0,41.0,30.06,NNE,18,10.0,12.0,99,0.00,,,0.00,,2013-04-24 04:43:00,
2013-04-24 00:53:00,40.0,40.0,30.04,NNE,28,9.0,31.0,99,0.00,,,0.00,,2013-04-24 04:53:00,
2013-04-24 01:02:00,40.0,40.0,30.04,NNE,28,9.0,31.0,99,0.00,,,0.00,,2013-04-24 05:02:00,
2013-04-24 01:13:00,40.0,40.0,30.04,NNE,28,9.0,31.0,99,0.00,,,0.00,,2013-04-24 05:13:00,
2013-04-24 01:22:00,41.0,41.0,30.03,NNE,24,13.0,31.0,99,0.00,,,0.00,,2013-04-24 05:22:00,
2013-04-24 01:32:00,41.0,41.0,30.03,NNE,24,13.0,31.0,99,0.00,,,0.00,,2013-04-24 05:32:00,
2013-04-24 01:42:00,41.0,41.0,30.03,NNE,24,13.0,31.0,99,0.00,,,0.00,,2013-04-24 05:42:00,
2013-04-24 01:52:00,41.0,41.0,30.02,North,10,9.0,31.0,99,0.00,,,0.00,,2013-04-24 05:52:00,
2013-04-24 02:02:00,41.0,41.0,30.02,North,10,9.0,31.0,99,0.00,,,0.00,,2013-04-24 06:02:00,
2013-04-24 02:12:00,41.0,41.0,30.02,North,10,9.0,31.0,99,0.00,,,0.00,,2013-04-24 06:12:00,
2013-04-24 02:22:00,41.0,41.0,30.00,North,4,9.0,31.0,99,0.00,,,0.00,,2013-04-24 06:22:00,
2013-04-24 02:33:00,41.0,41.0,30.00,North,4,9.0,31.0,99,0.00,,,0.00,,2013-04-24 06:33:00,
2013-04-24 02:42:00,41.0,41.0,30.00,North,4,9.0,31.0,99,0.00,,,0.00,,2013-04-24 06:42:00,
2013-04-24 02:52:00,41.0,41.0,30.00,North,5,12.0,31.0,99,0.00,,,0.00,,2013-04-24 06:52:00,
2013-04-24 03:02:00,41.0,41.0,30.00,North,5,12.0,31.0,99,0.00,,,0.00,,2013-04-24 07:02:00,
2013-04-24 03:11:00,41.0,41.0,30.00,North,5,12.0,31.0,99,0.00,,,0.00,,2013-04-24 07:11:00,
2013-04-24 03:22:00,41.0,41.0,30.00,NNW,341,6.0,31.0,99,0.00,,,0.00,,2013-04-24 07:22:00,
2013-04-24 03:32:00,41.0,41.0,30.00,NNW,341,6.0,31.0,99,0.00,,,0.00,,2013-04-24 07:32:00,
2013-04-24 03:42:00,41.0,41.0,30.00,NNW,341,6.0,31.0,99,0.00,,,0.00,,2013-04-24 07:42:00,
2013-04-24 03:52:00,40.0,40.0,29.98,NNE,14,8.0,31.0,99,0.00,,,0.00,,2013-04-24 07:52:00,
2013-04-24 04:02:00,40.0,40.0,29.98,NNE,14,8.0,31.0,99,0.00,,,0.00,,2013-04-24 08:02:00,
2013-04-24 04:12:00,40.0,40.0,29.98,NNE,14,8.0,31.0,99,0.00,,,0.00,,2013-04-24 08:12:00,
2013-04-24 04:21:00,40.0,40.0,29.97,North,1,8.0,31.0,99,0.00,,,0.00,,2013-04-24 08:21:00,
2013-04-24 04:33:00,40.0,40.0,29.97,North,1,8.0,31.0,99,0.00,,,0.00,,2013-04-24 08:33:00,
2013-04-24 04:42:00,40.0,40.0,29.97,North,1,8.0,31.0,99,0.00,,,0.00,,2013-04-24 08:42:00,
2013-04-24 04:52:00,40.0,40.0,29.97,North,355,6.0,31.0,99,0.00,,,0.00,,2013-04-24 08:52:00,
2013-04-24 05:02:00,40.0,40.0,29.97,North,355,6.0,31.0,99,0.00,,,0.00,,2013-04-24 09:02:00,
2013-04-24 05:11:00,40.0,40.0,29.97,North,355,6.0,31.0,99,0.00,,,0.00,,2013-04-24 09:11:00,
2013-04-24 05:21:00,41.0,41.0,29.98,North,350,9.0,31.0,99,0.00,,,0.00,,2013-04-24 09:21:00,
2013-04-24 05:33:00,41.0,41.0,29.98,North,350,9.0,31.0,99,0.00,,,0.00,,2013-04-24 09:33:00,
2013-04-24 05:42:00,41.0,41.0,29.98,North,350,9.0,31.0,99,0.00,,,0.00,,2013-04-24 09:42:00,
2013-04-24 05:53:00,41.0,41.0,30.01,NNW,331,6.0,31.0,99,0.00,,,0.00,,2013-04-24 09:53:00,
2013-04-24 06:02:00,41.0,41.0,30.01,NNW,331,6.0,31.0,99,0.00,,,0.00,,2013-04-24 10:02:00,
2013-04-24 06:12:00,41.0,41.0,30.01,NNW,331,6.0,31.0,99,0.00,,,0.00,,2013-04-24 10:12:00,
2013-04-24 06:22:00,41.0,41.0,30.01,North,359,9.0,31.0,99,0.00,,,0.00,,2013-04-24 10:22:00,
2013-04-24 06:32:00,41.0,41.0,30.01,North,359,9.0,31.0,99,0.00,,,0.00,,2013-04-24 10:32:00,
2013-04-24 06:42:00,41.0,41.0,30.01,North,359,9.0,31.0,99,0.00,,,0.00,,2013-04-24 10:42:00,
2013-04-24 06:53:00,41.0,41.0,30.01,NNE,14,6.0,31.0,99,0.00,,,0.00,,2013-04-24 10:53:00,
2013-04-24 07:02:00,41.0,41.0,30.01,NNE,14,6.0,31.0,99,0.00,,,0.00,,2013-04-24 11:02:00,
2013-04-24 07:12:00,41.0,41.0,30.01,North,5,6.0,31.0,99,0.00,,,0.00,,2013-04-24 11:12:00,
2013-04-24 07:21:00,41.0,41.0,30.01,North,5,6.0,31.0,99,0.00,,,0.00,,2013-04-24 11:21:00,
2013-04-24 07:32:00,41.0,41.0,30.01,North,5,6.0,31.0,99,0.00,,,0.00,,2013-04-24 11:32:00,
2013-04-24 07:43:00,41.0,41.0,30.01,North,5,6.0,31.0,99,0.00,,,0.00,,2013-04-24 11:43:00,
2013-04-24 07:52:00,42.0,42.0,30.04,WNW,297,7.0,31.0,99,0.00,,,0.00,,2013-04-24 11:52:00,
2013-04-24 08:02:00,42.0,42.0,30.04,WNW,297,7.0,31.0,99,0.00,,,0.00,,2013-04-24 12:02:00,
2013-04-24 08:12:00,42.0,42.0,30.05,NW,310,7.0,31.0,99,0.00,,,0.00,,2013-04-24 12:12:00,
2013-04-24 08:22:00,42.0,42.0,30.05,NW,310,7.0,31.0,99,0.00,,,0.00,,2013-04-24 12:22:00,
2013-04-24 08:32:00,42.0,42.0,30.05,NW,310,7.0,31.0,99,0.00,,,0.00,,2013-04-24 12:32:00,
2013-04-24 08:42:00,42.0,42.0,30.05,NW,310,7.0,31.0,99,0.00,,,0.00,,2013-04-24 12:42:00,
2013-04-24 08:52:00,43.0,43.0,30.05,NW,326,7.0,31.0,99,0.00,,,0.00,,2013-04-24 12:52:00,
2013-04-24 09:01:00,43.0,43.0,30.05,NW,326,7.0,31.0,99,0.00,,,0.00,,2013-04-24 13:01:00,
2013-04-24 09:12:00,43.0,43.0,30.05,NW,326,7.0,31.0,99,0.00,,,0.00,,2013-04-24 13:12:00,
2013-04-24 09:22:00,44.0,44.0,30.04,WNW,300,6.0,31.0,99,0.00,,,0.00,,2013-04-24 13:22:00,
2013-04-24 09:32:00,44.0,44.0,30.04,WNW,300,6.0,31.0,99,0.00,,,0.00,,2013-04-24 13:32:00,
2013-04-24 09:42:00,44.0,44.0,30.04,WNW,300,6.0,31.0,99,0.00,,,0.00,,2013-04-24 13:42:00,
2013-04-24 09:52:00,47.0,47.0,30.03,NNW,329,5.0,31.0,99,0.00,,,0.00,,2013-04-24 13:52:00,
2013-04-24 10:01:00,47.0,47.0,30.03,NNW,329,5.0,31.0,99,0.00,,,0.00,,2013-04-24 14:01:00,
2013-04-24 10:11:00,47.0,47.0,30.03,NNW,329,5.0,31.0,99,0.00,,,0.00,,2013-04-24 14:11:00,
2013-04-24 10:21:00,49.0,48.0,30.03,WNW,301,6.0,31.0,96,0.00,,,0.00,,2013-04-24 14:21:00,
2013-04-24 10:32:00,49.0,48.0,30.03,WNW,301,6.0,31.0,96,0.00,,,0.00,,2013-04-24 14:32:00,
2013-04-24 10:42:00,49.0,48.0,30.03,WNW,301,6.0,31.0,96,0.00,,,0.00,,2013-04-24 14:42:00,
2013-04-24 10:52:00,51.0,49.0,30.02,WNW,287,5.0,31.0,92,0.00,,,0.00,,2013-04-24 14:52:00,
2013-04-24 11:01:00,51.0,49.0,30.02,WNW,287,5.0,31.0,92,0.00,,,0.00,,2013-04-24 15:01:00,
2013-04-24 11:11:00,51.0,49.0,30.02,WNW,287,5.0,31.0,92,0.00,,,0.00,,2013-04-24 15:11:00,
2013-04-24 11:22:00,51.0,49.0,30.02,WNW,287,5.0,31.0,92,0.00,,,0.00,,2013-04-24 15:22:00,
2013-04-24 11:53:00,56.0,51.0,30.01,WSW,241,5.0,31.0,82,0.00,,,0.00,,2013-04-24 15:53:00,
2013-04-24 12:02:00,57.0,51.0,30.00,SSW,206,2.0,31.0,81,0.00,,,0.00,,2013-04-24 16:02:00,
2013-04-24 12:03:00,56.0,51.0,30.01,WSW,241,5.0,31.0,82,0.00,,,0.00,,2013-04-24 16:03:00,
2013-04-24 12:12:00,56.0,51.0,30.01,WSW,241,5.0,31.0,82,0.00,,,0.00,,2013-04-24 16:12:00,
2013-04-24 12:23:00,57.0,51.0,30.00,SSW,206,2.0,31.0,81,0.00,,,0.00,,2013-04-24 16:23:00,
2013-04-24 12:32:00,57.0,51.0,30.00,SSW,206,2.0,31.0,81,0.00,,,0.00,,2013-04-24 16:32:00,
2013-04-24 12:42:00,57.0,51.0,30.00,SSW,206,2.0,31.0,81,0.00,,,0.00,,2013-04-24 16:42:00,
2013-04-24 12:53:00,57.0,51.0,30.00,SSW,206,2.0,31.0,81,0.00,,,0.00,,2013-04-24 16:53:00,
2013-04-24 13:22:00,57.0,50.0,29.97,WSW,246,1.0,31.0,77,0.00,,,0.00,,2013-04-24 17:22:00,
2013-04-24 13:32:00,57.0,50.0,29.97,WSW,246,1.0,31.0,77,0.00,,,0.00,,2013-04-24 17:32:00,
2013-04-24 13:42:00,57.0,50.0,29.97,WSW,246,1.0,31.0,77,0.00,,,0.00,,2013-04-24 17:42:00,
2013-04-24 13:52:00,57.0,50.0,29.96,SW,227,4.0,31.0,76,0.00,,,0.00,,2013-04-24 17:52:00,
2013-04-24 14:02:00,57.0,50.0,29.96,SW,227,4.0,31.0,76,0.00,,,0.00,,2013-04-24 18:02:00,
2013-04-24 14:12:00,57.0,50.0,29.96,SW,227,4.0,31.0,76,0.00,,,0.00,,2013-04-24 18:12:00,
2013-04-24 14:22:00,58.0,50.0,29.96,WSW,255,3.0,31.0,74,0.00,,,0.00,,2013-04-24 18:22:00,
2013-04-24 14:33:00,58.0,50.0,29.96,WSW,255,3.0,31.0,74,0.00,,,0.00,,2013-04-24 18:33:00,
2013-04-24 14:43:00,58.0,50.0,29.96,WSW,255,3.0,31.0,74,0.00,,,0.00,,2013-04-24 18:43:00,
2013-04-24 14:52:00,58.0,47.0,29.95,SSW,212,5.0,31.0,68,0.00,,,0.00,,2013-04-24 18:52:00,
2013-04-24 15:02:00,58.0,47.0,29.95,SSW,212,5.0,31.0,68,0.00,,,0.00,,2013-04-24 19:02:00,
2013-04-24 15:12:00,58.0,47.0,29.95,SSW,212,5.0,31.0,68,0.00,,,0.00,,2013-04-24 19:12:00,
2013-04-24 15:22:00,56.0,48.0,29.95,SSW,199,6.0,31.0,74,0.00,,,0.00,,2013-04-24 19:22:00,
2013-04-24 15:32:00,56.0,48.0,29.95,SSW,199,6.0,31.0,74,0.00,,,0.00,,2013-04-24 19:32:00,
2013-04-24 15:42:00,56.0,48.0,29.95,SSW,199,6.0,31.0,74,0.00,,,0.00,,2013-04-24 19:42:00,
2013-04-24 15:52:00,56.0,48.0,29.95,SSW,199,6.0,31.0,74,0.00,,,0.00,,2013-04-24 19:52:00,
2013-04-24 16:22:00,55.0,49.0,29.95,SSW,197,1.0,31.0,81,0.00,,,0.00,,2013-04-24 20:22:00,
2013-04-24 16:32:00,55.0,49.0,29.95,SSW,197,1.0,31.0,81,0.00,,,0.00,,2013-04-24 20:32:00,
2013-04-24 16:42:00,55.0,49.0,29.95,SSW,197,1.0,31.0,81,0.00,,,0.00,,2013-04-24 20:42:00,
2013-04-24 16:52:00,52.0,48.0,29.96,SSW,209,6.0,31.0,85,0.00,,,0.00,,2013-04-24 20:52:00,
2013-04-24 17:02:00,52.0,48.0,29.96,SSW,209,6.0,31.0,85,0.00,,,0.00,,2013-04-24 21:02:00,
2013-04-24 17:12:00,52.0,48.0,29.96,SSW,209,6.0,31.0,85,0.00,,,0.00,,2013-04-24 21:12:00,
2013-04-24 17:22:00,56.0,52.0,29.95,SSW,213,5.0,31.0,86,0.00,,,0.00,,2013-04-24 21:22:00,
2013-04-24 17:33:00,56.0,52.0,29.95,SSW,213,5.0,31.0,86,0.00,,,0.00,,2013-04-24 21:33:00,
2013-04-24 17:42:00,56.0,52.0,29.95,SSW,213,5.0,31.0,86,0.00,,,0.00,,2013-04-24 21:42:00,
2013-04-24 17:53:00,53.0,50.0,29.95,South,174,4.0,31.0,91,0.00,,,0.00,,2013-04-24 21:53:00,
2013-04-24 18:03:00,53.0,50.0,29.95,South,174,4.0,31.0,91,0.00,,,0.00,,2013-04-24 22:03:00,
2013-04-24 18:12:00,53.0,50.0,29.95,South,174,4.0,31.0,91,0.00,,,0.00,,2013-04-24 22:12:00,
2013-04-24 18:22:00,52.0,50.0,29.96,WSW,244,4.0,31.0,93,0.00,,,0.00,,2013-04-24 22:22:00,
2013-04-24 18:33:00,52.0,50.0,29.96,WSW,244,4.0,31.0,93,0.00,,,0.00,,2013-04-24 22:33:00,
2013-04-24 18:42:00,52.0,50.0,29.96,WSW,244,4.0,31.0,93,0.00,,,0.00,,2013-04-24 22:42:00,
2013-04-24 18:52:00,51.0,50.0,29.96,WSW,238,5.0,31.0,97,0.00,,,0.00,,2013-04-24 22:52:00,
2013-04-24 19:02:00,51.0,50.0,29.96,WSW,238,5.0,31.0,97,0.00,,,0.00,,2013-04-24 23:02:00,
2013-04-24 19:12:00,51.0,50.0,29.96,WSW,238,5.0,31.0,97,0.00,,,0.00,,2013-04-24 23:12:00,
2013-04-24 19:21:00,47.0,47.0,29.96,SSW,210,4.0,31.0,99,0.00,,,0.00,,2013-04-24 23:21:00,
2013-04-24 19:32:00,47.0,47.0,29.96,SSW,210,4.0,31.0,99,0.00,,,0.00,,2013-04-24 23:32:00,
2013-04-24 19:42:00,47.0,47.0,29.96,SSW,210,4.0,31.0,99,0.00,,,0.00,,2013-04-24 23:42:00,
2013-04-24 19:52:00,45.0,45.0,29.96,SSW,201,8.0,31.0,99,0.00,,,0.00,,2013-04-24 23:52:00,
2013-04-24 20:02:00,45.0,45.0,29.96,SSW,201,8.0,31.0,99,0.00,,,0.00,,2013-04-25 00:02:00,
2013-04-24 20:12:00,45.0,45.0,29.96,SSW,201,8.0,31.0,99,0.00,,,0.00,,2013-04-25 00:12:00,
2013-04-24 20:22:00,44.0,44.0,29.96,SSW,198,6.0,31.0,99,0.00,,,0.00,,2013-04-25 00:22:00,
2013-04-24 20:32:00,44.0,44.0,29.96,SSW,198,6.0,31.0,99,0.00,,,0.00,,2013-04-25 00:32:00,
2013-04-24 20:42:00,44.0,44.0,29.96,SSW,198,6.0,31.0,99,0.00,,,0.00,,2013-04-25 00:42:00,
2013-04-24 20:52:00,44.0,44.0,29.97,SSW,213,4.0,31.0,99,0.00,,,0.00,,2013-04-25 00:52:00,
2013-04-24 21:01:00,44.0,44.0,29.97,SSW,213,4.0,31.0,99,0.00,,,0.00,,2013-04-25 01:01:00,
2013-04-24 21:11:00,44.0,44.0,29.97,SSW,213,4.0,31.0,99,0.00,,,0.00,,2013-04-25 01:11:00,
2013-04-24 21:23:00,44.0,44.0,29.98,SSW,203,0.0,31.0,99,0.00,,,0.00,,2013-04-25 01:23:00,
2013-04-24 21:32:00,44.0,44.0,29.98,SSW,203,0.0,31.0,99,0.00,,,0.00,,2013-04-25 01:32:00,
2013-04-24 21:42:00,44.0,44.0,29.98,SSW,203,0.0,31.0,99,0.00,,,0.00,,2013-04-25 01:42:00,
2013-04-24 21:52:00,44.0,44.0,30.01,SW,217,3.0,31.0,99,0.00,,,0.00,,2013-04-25 01:52:00,
2013-04-24 22:02:00,44.0,44.0,30.01,SW,217,3.0,31.0,99,0.00,,,0.00,,2013-04-25 02:02:00,
2013-04-24 22:11:00,44.0,44.0,30.01,SW,217,3.0,31.0,99,0.00,,,0.00,,2013-04-25 02:11:00,
2013-04-24 22:22:00,45.0,45.0,30.01,SW,216,3.0,31.0,99,0.00,,,0.00,,2013-04-25 02:22:00,
2013-04-24 22:32:00,45.0,45.0,30.01,SW,216,3.0,31.0,99,0.00,,,0.00,,2013-04-25 02:32:00,
2013-04-24 22:42:00,45.0,45.0,30.01,SW,216,3.0,31.0,99,0.00,,,0.00,,2013-04-25 02:42:00,
2013-04-24 22:52:00,45.0,45.0,30.01,SW,216,3.0,31.0,99,0.00,,,0.00,,2013-04-25 02:52:00,
2013-04-24 23:02:00,45.0,45.0,29.99,South,173,0.0,31.0,99,0.00,,,0.00,,2013-04-25 03:02:00,
2013-04-24 23:11:00,45.0,45.0,29.98,South,190,2.0,31.0,99,0.00,,,0.00,,2013-04-25 03:11:00,
2013-04-24 23:22:00,45.0,45.0,29.98,South,190,2.0,31.0,99,0.00,,,0.00,,2013-04-25 03:22:00,
2013-04-24 23:33:00,45.0,45.0,29.98,South,190,2.0,31.0,99,0.00,,,0.00,,2013-04-25 03:33:00,
2013-04-24 23:43:00,45.0,45.0,29.98,South,190,2.0,31.0,99,0.00,,,0.00,,2013-04-25 03:43:00,
2013-04-24 23:52:00,46.0,46.0,29.98,SW,223,1.0,31.0,99,0.00,,,0.00,,2013-04-25 03:52:00,